McCall, ID

10:05 PM MST on March 05, 2015 (GMT -0700)
Stanley | Change Station
CLOSE
Current Station
Airport
Location: Stanley,
Elevation: 6496 ft
Nearby Weather Stations

Elev 6496 ft 44.17 °N, 114.93 °W | Updated 14 minutes ago

Clear
Clear
23 °F
Feels Like 17 °F
N
5
Wind Variable Wind from SSE
Gusts mph

Today
High -- | Low -- °F
--% Chance of Precip.
Yesterday
High -- | Low -- °F
Precip. -- in
7:15 AM 6:37 PM
Full, 100% visible
Pressure 30.46 in
Visibility -9999.0 miles
Clouds
Windchill 17 °F
Dew Point 9 °F
Humidity 55%
Rainfall 0.00 in
Snow Depth Not available.
UV Not available.
Pollen 3.00 out of 12
Air Quality Not available.
Flu Activity Not available.
METAR KSNT 060451Z AUTO 16004KT M05/M13 A3038 RMK AO1 SLP314 T10501128

More Conditions Fewer Conditions

Pressure 30.46 in
Visibility -9999.0 miles
Clouds
Windchill 17 °F
Dew Point 9 °F
Humidity 55%
Rainfall 0.00 in
Snow Depth Not available.
UV Not available.
Pollen 3.00 out of 12
Air Quality Not available.
Flu Activity Not available.
METAR KSNT 060451Z AUTO 16004KT M05/M13 A3038 RMK AO1 SLP314 T10501128

More Conditions Fewer Conditions

10-Day Weather Forecast

Almanac

Astronomy

Mar. 05, 2015 Rise Set
Actual Time
Civil Twilight
Nautical Twilight
Astronomical Twilight
Moon
Length of Visible Light
Length of Day
Tomorrow will be .
, % of the Moon is Illuminated

Today's Extremes

State Highs State Lows

Community

WunderPhotos

Upload Photos

1,803,184 photos uploaded!

WunderBlogs® & News

Nearby

Air Quality

  Air Quality AQ Index Pollutant
Not available.

Snow Depth

Station Depth Elevation

Earthquake Activity

City Distance Mag. Time & Date
Minimum magnitude displayed is 2.5.

Coastal Water Temperatures

Place Temperature

Nearby Weather Stations